sensor_id;sensor_type;location;lat;lon;timestamp;P1;durP1;ratioP1;P2;durP2;ratioP2
74059;SDS011;62414;53.436;8.828;2022-08-01T00:01:37;32.43;;;13.67;;
74059;SDS011;62414;53.436;8.828;2022-08-01T00:04:02;32.70;;;14.23;;
74059;SDS011;62414;53.436;8.828;2022-08-01T00:06:28;32.70;;;14.48;;
74059;SDS011;62414;53.436;8.828;2022-08-01T00:08:54;35.17;;;14.43;;
74059;SDS011;62414;53.436;8.828;2022-08-01T00:11:21;39.23;;;14.93;;
74059;SDS011;62414;53.436;8.828;2022-08-01T00:13:46;37.80;;;15.43;;
74059;SDS011;62414;53.436;8.828;2022-08-01T00:16:12;39.37;;;15.63;;
74059;SDS011;62414;53.436;8.828;2022-08-01T00:18:37;39.37;;;16.07;;
74059;SDS011;62414;53.436;8.828;2022-08-01T00:21:03;41.42;;;16.40;;
74059;SDS011;62414;53.436;8.828;2022-08-01T00:23:28;42.17;;;17.13;;
74059;SDS011;62414;53.436;8.828;2022-08-01T00:25:54;44.83;;;17.30;;
74059;SDS011;62414;53.436;8.828;2022-08-01T00:28:21;44.93;;;18.03;;
74059;SDS011;62414;53.436;8.828;2022-08-01T00:30:46;48.88;;;18.10;;
74059;SDS011;62414;53.436;8.828;2022-08-01T00:33:11;40.73;;;15.80;;
74059;SDS011;62414;53.436;8.828;2022-08-01T00:35:37;43.57;;;17.00;;
74059;SDS011;62414;53.436;8.828;2022-08-01T00:38:02;43.22;;;17.20;;
74059;SDS011;62414;53.436;8.828;2022-08-01T00:40:28;42.63;;;17.37;;
74059;SDS011;62414;53.436;8.828;2022-08-01T00:42:53;40.50;;;16.80;;
74059;SDS011;62414;53.436;8.828;2022-08-01T00:45:20;38.40;;;16.17;;
74059;SDS011;62414;53.436;8.828;2022-08-01T00:47:46;32.87;;;14.77;;
74059;SDS011;62414;53.436;8.828;2022-08-01T00:50:11;31.95;;;15.52;;
74059;SDS011;62414;53.436;8.828;2022-08-01T00:52:37;27.47;;;13.53;;
74059;SDS011;62414;53.436;8.828;2022-08-01T00:55:05;26.67;;;14.40;;
74059;SDS011;62414;53.436;8.828;2022-08-01T00:57:31;28.45;;;14.52;;
74059;SDS011;62414;53.436;8.828;2022-08-01T00:59:57;28.27;;;14.17;;
74059;SDS011;62414;53.436;8.828;2022-08-01T01:02:24;24.00;;;13.50;;
74059;SDS011;62414;53.436;8.828;2022-08-01T01:04:49;21.30;;;12.35;;
74059;SDS011;62414;53.436;8.828;2022-08-01T01:07:16;28.33;;;14.77;;
74059;SDS011;62414;53.436;8.828;2022-08-01T01:09:47;25.75;;;13.80;;
74059;SDS011;62414;53.436;8.828;2022-08-01T01:12:19;25.10;;;12.93;;
74059;SDS011;62414;53.436;8.828;2022-08-01T01:14:51;27.10;;;14.85;;
74059;SDS011;62414;53.436;8.828;2022-08-01T01:17:24;25.85;;;14.15;;
74059;SDS011;62414;53.436;8.828;2022-08-01T01:19:53;31.02;;;14.85;;
74059;SDS011;62414;53.436;8.828;2022-08-01T01:22:26;26.45;;;14.05;;
74059;SDS011;62414;53.436;8.828;2022-08-01T01:25:19;23.47;;;13.07;;
74059;SDS011;62414;53.436;8.828;2022-08-01T01:27:57;25.80;;;13.23;;
74059;SDS011;62414;53.436;8.828;2022-08-01T01:30:30;23.55;;;13.35;;
74059;SDS011;62414;53.436;8.828;2022-08-01T01:32:57;24.02;;;12.85;;
74059;SDS011;62414;53.436;8.828;2022-08-01T01:35:27;26.85;;;13.95;;
74059;SDS011;62414;53.436;8.828;2022-08-01T01:37:56;26.50;;;13.40;;
74059;SDS011;62414;53.436;8.828;2022-08-01T01:40:25;29.75;;;14.00;;
74059;SDS011;62414;53.436;8.828;2022-08-01T01:42:51;29.05;;;14.35;;
74059;SDS011;62414;53.436;8.828;2022-08-01T01:45:17;28.77;;;13.50;;
74059;SDS011;62414;53.436;8.828;2022-08-01T01:47:45;25.60;;;13.65;;
74059;SDS011;62414;53.436;8.828;2022-08-01T01:50:11;28.17;;;13.87;;
74059;SDS011;62414;53.436;8.828;2022-08-01T01:52:38;30.25;;;14.05;;
74059;SDS011;62414;53.436;8.828;2022-08-01T01:55:06;23.42;;;13.00;;
74059;SDS011;62414;53.436;8.828;2022-08-01T01:57:33;22.05;;;10.73;;
74059;SDS011;62414;53.436;8.828;2022-08-01T02:00:03;21.75;;;10.88;;
74059;SDS011;62414;53.436;8.828;2022-08-01T02:02:30;19.23;;;9.90;;
74059;SDS011;62414;53.436;8.828;2022-08-01T02:04:57;18.33;;;9.63;;
74059;SDS011;62414;53.436;8.828;2022-08-01T02:07:24;17.88;;;9.13;;
74059;SDS011;62414;53.436;8.828;2022-08-01T02:09:51;20.05;;;9.68;;
74059;SDS011;62414;53.436;8.828;2022-08-01T02:12:19;17.67;;;9.00;;
74059;SDS011;62414;53.436;8.828;2022-08-01T02:14:45;16.63;;;8.60;;
74059;SDS011;62414;53.436;8.828;2022-08-01T02:17:15;17.00;;;8.50;;
74059;SDS011;62414;53.436;8.828;2022-08-01T02:19:42;16.13;;;7.80;;
74059;SDS011;62414;53.436;8.828;2022-08-01T02:22:10;17.08;;;8.18;;
74059;SDS011;62414;53.436;8.828;2022-08-01T02:24:42;15.03;;;7.63;;
74059;SDS011;62414;53.436;8.828;2022-08-01T02:27:14;19.60;;;8.00;;
74059;SDS011;62414;53.436;8.828;2022-08-01T02:29:43;13.18;;;6.35;;
74059;SDS011;62414;53.436;8.828;2022-08-01T02:32:12;16.02;;;6.97;;
74059;SDS011;62414;53.436;8.828;2022-08-01T02:34:42;14.52;;;6.70;;
74059;SDS011;62414;53.436;8.828;2022-08-01T02:37:15;14.33;;;6.43;;
74059;SDS011;62414;53.436;8.828;2022-08-01T02:39:42;13.43;;;6.28;;
74059;SDS011;62414;53.436;8.828;2022-08-01T02:42:10;13.75;;;6.03;;
74059;SDS011;62414;53.436;8.828;2022-08-01T02:44:38;11.77;;;6.00;;
74059;SDS011;62414;53.436;8.828;2022-08-01T02:47:06;11.60;;;5.72;;
74059;SDS011;62414;53.436;8.828;2022-08-01T02:49:33;12.77;;;6.00;;
74059;SDS011;62414;53.436;8.828;2022-08-01T02:52:01;11.32;;;5.55;;
74059;SDS011;62414;53.436;8.828;2022-08-01T02:54:31;12.05;;;5.72;;
74059;SDS011;62414;53.436;8.828;2022-08-01T02:56:58;13.43;;;5.97;;
74059;SDS011;62414;53.436;8.828;2022-08-01T02:59:26;14.23;;;5.70;;
74059;SDS011;62414;53.436;8.828;2022-08-01T03:01:52;13.23;;;5.65;;
74059;SDS011;62414;53.436;8.828;2022-08-01T03:04:20;13.40;;;6.10;;
74059;SDS011;62414;53.436;8.828;2022-08-01T03:06:47;13.00;;;5.68;;
74059;SDS011;62414;53.436;8.828;2022-08-01T03:09:13;13.37;;;5.50;;
74059;SDS011;62414;53.436;8.828;2022-08-01T03:11:42;11.90;;;5.28;;
74059;SDS011;62414;53.436;8.828;2022-08-01T03:14:09;11.25;;;4.60;;
74059;SDS011;62414;53.436;8.828;2022-08-01T03:16:36;11.57;;;5.20;;
74059;SDS011;62414;53.436;8.828;2022-08-01T03:19:03;11.68;;;5.40;;
74059;SDS011;62414;53.436;8.828;2022-08-01T03:21:30;10.07;;;4.97;;
74059;SDS011;62414;53.436;8.828;2022-08-01T03:23:57;13.93;;;6.03;;
74059;SDS011;62414;53.436;8.828;2022-08-01T03:26:25;11.65;;;5.68;;
74059;SDS011;62414;53.436;8.828;2022-08-01T03:28:55;13.27;;;5.80;;
74059;SDS011;62414;53.436;8.828;2022-08-01T03:31:22;13.27;;;5.45;;
74059;SDS011;62414;53.436;8.828;2022-08-01T03:33:50;11.40;;;5.03;;
74059;SDS011;62414;53.436;8.828;2022-08-01T03:36:15;14.82;;;5.72;;
74059;SDS011;62414;53.436;8.828;2022-08-01T03:38:47;12.82;;;5.50;;
74059;SDS011;62414;53.436;8.828;2022-08-01T03:41:15;12.23;;;5.17;;
74059;SDS011;62414;53.436;8.828;2022-08-01T03:43:46;12.93;;;5.25;;
74059;SDS011;62414;53.436;8.828;2022-08-01T03:46:19;10.52;;;4.97;;
74059;SDS011;62414;53.436;8.828;2022-08-01T03:48:47;11.10;;;4.85;;
74059;SDS011;62414;53.436;8.828;2022-08-01T03:51:14;10.43;;;4.10;;
74059;SDS011;62414;53.436;8.828;2022-08-01T03:53:41;8.50;;;4.03;;
74059;SDS011;62414;53.436;8.828;2022-08-01T03:56:09;6.72;;;3.72;;
74059;SDS011;62414;53.436;8.828;2022-08-01T03:58:36;10.13;;;4.35;;
74059;SDS011;62414;53.436;8.828;2022-08-01T04:01:04;7.40;;;3.40;;
74059;SDS011;62414;53.436;8.828;2022-08-01T04:03:32;7.25;;;3.60;;
74059;SDS011;62414;53.436;8.828;2022-08-01T04:05:58;9.63;;;3.47;;
74059;SDS011;62414;53.436;8.828;2022-08-01T04:08:27;9.23;;;3.90;;
74059;SDS011;62414;53.436;8.828;2022-08-01T04:10:59;12.13;;;4.15;;
74059;SDS011;62414;53.436;8.828;2022-08-01T04:13:24;13.27;;;5.40;;
74059;SDS011;62414;53.436;8.828;2022-08-01T04:15:50;11.97;;;5.20;;
74059;SDS011;62414;53.436;8.828;2022-08-01T04:18:15;9.10;;;5.00;;
74059;SDS011;62414;53.436;8.828;2022-08-01T04:20:42;10.27;;;4.78;;
74059;SDS011;62414;53.436;8.828;2022-08-01T04:23:07;14.68;;;5.35;;
74059;SDS011;62414;53.436;8.828;2022-08-01T04:25:35;13.53;;;5.00;;
74059;SDS011;62414;53.436;8.828;2022-08-01T04:28:02;11.95;;;5.10;;
74059;SDS011;62414;53.436;8.828;2022-08-01T04:30:31;13.77;;;5.13;;
74059;SDS011;62414;53.436;8.828;2022-08-01T04:33:00;16.88;;;5.30;;
74059;SDS011;62414;53.436;8.828;2022-08-01T04:35:27;12.13;;;4.80;;
74059;SDS011;62414;53.436;8.828;2022-08-01T04:37:55;13.07;;;5.17;;
74059;SDS011;62414;53.436;8.828;2022-08-01T04:40:22;12.70;;;5.45;;
74059;SDS011;62414;53.436;8.828;2022-08-01T04:42:49;18.70;;;5.40;;
74059;SDS011;62414;53.436;8.828;2022-08-01T04:45:15;17.93;;;5.80;;
74059;SDS011;62414;53.436;8.828;2022-08-01T04:47:40;17.77;;;5.85;;
74059;SDS011;62414;53.436;8.828;2022-08-01T04:50:07;16.65;;;4.95;;
74059;SDS011;62414;53.436;8.828;2022-08-01T04:52:34;15.32;;;4.82;;
74059;SDS011;62414;53.436;8.828;2022-08-01T04:55:02;16.63;;;4.80;;
74059;SDS011;62414;53.436;8.828;2022-08-01T04:57:29;13.57;;;4.75;;
74059;SDS011;62414;53.436;8.828;2022-08-01T04:59:54;13.77;;;4.35;;
74059;SDS011;62414;53.436;8.828;2022-08-01T05:02:19;15.63;;;4.57;;
74059;SDS011;62414;53.436;8.828;2022-08-01T05:04:45;18.13;;;4.57;;
74059;SDS011;62414;53.436;8.828;2022-08-01T05:07:11;19.77;;;5.22;;
74059;SDS011;62414;53.436;8.828;2022-08-01T05:09:37;20.30;;;4.18;;
74059;SDS011;62414;53.436;8.828;2022-08-01T05:12:06;18.85;;;4.70;;
74059;SDS011;62414;53.436;8.828;2022-08-01T05:14:32;17.57;;;4.40;;
74059;SDS011;62414;53.436;8.828;2022-08-01T05:16:58;17.75;;;4.45;;
74059;SDS011;62414;53.436;8.828;2022-08-01T05:19:24;15.25;;;4.53;;
74059;SDS011;62414;53.436;8.828;2022-08-01T05:21:49;17.20;;;3.60;;
74059;SDS011;62414;53.436;8.828;2022-08-01T05:24:15;17.07;;;3.80;;
74059;SDS011;62414;53.436;8.828;2022-08-01T05:26:40;13.82;;;3.88;;
74059;SDS011;62414;53.436;8.828;2022-08-01T05:29:07;17.23;;;4.10;;
74059;SDS011;62414;53.436;8.828;2022-08-01T05:34:00;17.80;;;4.80;;
74059;SDS011;62414;53.436;8.828;2022-08-01T05:36:26;19.93;;;4.33;;
74059;SDS011;62414;53.436;8.828;2022-08-01T05:38:51;14.70;;;3.93;;
74059;SDS011;62414;53.436;8.828;2022-08-01T05:41:16;24.43;;;4.50;;
74059;SDS011;62414;53.436;8.828;2022-08-01T05:43:42;21.80;;;4.30;;
74059;SDS011;62414;53.436;8.828;2022-08-01T05:46:09;18.57;;;3.70;;
74059;SDS011;62414;53.436;8.828;2022-08-01T05:48:34;20.55;;;3.90;;
74059;SDS011;62414;53.436;8.828;2022-08-01T05:50:59;16.43;;;4.40;;
74059;SDS011;62414;53.436;8.828;2022-08-01T05:53:25;16.73;;;4.50;;
74059;SDS011;62414;53.436;8.828;2022-08-01T05:55:51;21.35;;;4.40;;
74059;SDS011;62414;53.436;8.828;2022-08-01T05:58:16;20.00;;;4.33;;
74059;SDS011;62414;53.436;8.828;2022-08-01T06:00:41;16.67;;;4.50;;
74059;SDS011;62414;53.436;8.828;2022-08-01T06:03:08;23.27;;;4.73;;
74059;SDS011;62414;53.436;8.828;2022-08-01T06:05:34;18.42;;;4.10;;
74059;SDS011;62414;53.436;8.828;2022-08-01T06:07:59;22.63;;;4.80;;
74059;SDS011;62414;53.436;8.828;2022-08-01T06:10:25;18.87;;;4.13;;
74059;SDS011;62414;53.436;8.828;2022-08-01T06:12:50;19.55;;;4.30;;
74059;SDS011;62414;53.436;8.828;2022-08-01T06:15:15;21.73;;;4.63;;
74059;SDS011;62414;53.436;8.828;2022-08-01T06:17:41;17.33;;;4.33;;
74059;SDS011;62414;53.436;8.828;2022-08-01T06:20:08;17.20;;;4.33;;
74059;SDS011;62414;53.436;8.828;2022-08-01T06:22:35;16.92;;;4.35;;
74059;SDS011;62414;53.436;8.828;2022-08-01T06:25:00;20.67;;;4.40;;
74059;SDS011;62414;53.436;8.828;2022-08-01T06:27:26;19.43;;;4.37;;
74059;SDS011;62414;53.436;8.828;2022-08-01T06:29:51;22.60;;;4.60;;
74059;SDS011;62414;53.436;8.828;2022-08-01T06:32:17;17.63;;;4.43;;
74059;SDS011;62414;53.436;8.828;2022-08-01T06:34:42;18.93;;;4.53;;
74059;SDS011;62414;53.436;8.828;2022-08-01T06:37:09;21.67;;;4.70;;
74059;SDS011;62414;53.436;8.828;2022-08-01T06:39:34;18.85;;;4.45;;
74059;SDS011;62414;53.436;8.828;2022-08-01T06:42:00;20.63;;;4.30;;
74059;SDS011;62414;53.436;8.828;2022-08-01T06:44:25;13.35;;;4.47;;
74059;SDS011;62414;53.436;8.828;2022-08-01T06:46:51;21.40;;;5.60;;
74059;SDS011;62414;53.436;8.828;2022-08-01T06:49:16;18.40;;;4.27;;
74059;SDS011;62414;53.436;8.828;2022-08-01T06:51:41;19.80;;;4.05;;
74059;SDS011;62414;53.436;8.828;2022-08-01T06:54:08;19.20;;;4.87;;
74059;SDS011;62414;53.436;8.828;2022-08-01T06:56:34;14.20;;;3.30;;
74059;SDS011;62414;53.436;8.828;2022-08-01T06:58:59;18.10;;;3.70;;
74059;SDS011;62414;53.436;8.828;2022-08-01T07:01:24;12.77;;;3.17;;
74059;SDS011;62414;53.436;8.828;2022-08-01T07:03:50;17.63;;;3.40;;
74059;SDS011;62414;53.436;8.828;2022-08-01T07:06:15;17.73;;;3.00;;
74059;SDS011;62414;53.436;8.828;2022-08-01T07:08:41;18.53;;;3.50;;
74059;SDS011;62414;53.436;8.828;2022-08-01T07:11:08;18.75;;;3.80;;
74059;SDS011;62414;53.436;8.828;2022-08-01T07:13:33;16.37;;;3.50;;
74059;SDS011;62414;53.436;8.828;2022-08-01T07:15:58;18.17;;;3.47;;
74059;SDS011;62414;53.436;8.828;2022-08-01T07:18:24;13.93;;;3.03;;
74059;SDS011;62414;53.436;8.828;2022-08-01T07:20:50;16.23;;;3.10;;
74059;SDS011;62414;53.436;8.828;2022-08-01T07:23:15;15.02;;;3.30;;
74059;SDS011;62414;53.436;8.828;2022-08-01T07:25:41;17.20;;;3.40;;
74059;SDS011;62414;53.436;8.828;2022-08-01T07:28:08;15.13;;;2.85;;
74059;SDS011;62414;53.436;8.828;2022-08-01T07:30:33;17.63;;;3.10;;
74059;SDS011;62414;53.436;8.828;2022-08-01T07:32:59;16.87;;;3.43;;
74059;SDS011;62414;53.436;8.828;2022-08-01T07:35:24;19.85;;;3.22;;
74059;SDS011;62414;53.436;8.828;2022-08-01T07:37:50;17.53;;;2.90;;
74059;SDS011;62414;53.436;8.828;2022-08-01T07:40:16;14.73;;;2.70;;
74059;SDS011;62414;53.436;8.828;2022-08-01T07:42:41;15.88;;;2.88;;
74059;SDS011;62414;53.436;8.828;2022-08-01T07:45:09;16.40;;;3.03;;
74059;SDS011;62414;53.436;8.828;2022-08-01T07:47:35;15.93;;;3.03;;
74059;SDS011;62414;53.436;8.828;2022-08-01T07:50:00;17.35;;;2.85;;
74059;SDS011;62414;53.436;8.828;2022-08-01T07:52:27;14.73;;;3.00;;
74059;SDS011;62414;53.436;8.828;2022-08-01T07:54:53;15.07;;;2.47;;
74059;SDS011;62414;53.436;8.828;2022-08-01T07:57:18;15.17;;;2.63;;
74059;SDS011;62414;53.436;8.828;2022-08-01T07:59:44;17.30;;;2.63;;
74059;SDS011;62414;53.436;8.828;2022-08-01T08:02:10;16.40;;;2.80;;
74059;SDS011;62414;53.436;8.828;2022-08-01T08:04:36;13.35;;;2.50;;
74059;SDS011;62414;53.436;8.828;2022-08-01T08:07:01;12.57;;;2.80;;
74059;SDS011;62414;53.436;8.828;2022-08-01T08:09:27;16.77;;;2.28;;
74059;SDS011;62414;53.436;8.828;2022-08-01T08:11:53;12.53;;;2.30;;
74059;SDS011;62414;53.436;8.828;2022-08-01T08:14:18;13.57;;;2.60;;
74059;SDS011;62414;53.436;8.828;2022-08-01T08:16:44;14.20;;;2.40;;
74059;SDS011;62414;53.436;8.828;2022-08-01T08:19:11;13.07;;;2.30;;
74059;SDS011;62414;53.436;8.828;2022-08-01T08:21:37;15.53;;;2.60;;
74059;SDS011;62414;53.436;8.828;2022-08-01T08:24:02;16.05;;;2.60;;
74059;SDS011;62414;53.436;8.828;2022-08-01T08:26:28;14.50;;;2.63;;
74059;SDS011;62414;53.436;8.828;2022-08-01T08:28:53;11.43;;;2.30;;
74059;SDS011;62414;53.436;8.828;2022-08-01T08:31:19;14.73;;;2.27;;
74059;SDS011;62414;53.436;8.828;2022-08-01T08:33:44;14.37;;;2.60;;
74059;SDS011;62414;53.436;8.828;2022-08-01T08:36:11;9.50;;;2.10;;
74059;SDS011;62414;53.436;8.828;2022-08-01T08:38:38;13.00;;;2.05;;
74059;SDS011;62414;53.436;8.828;2022-08-01T08:41:04;13.23;;;2.40;;
74059;SDS011;62414;53.436;8.828;2022-08-01T08:43:29;13.50;;;2.23;;
74059;SDS011;62414;53.436;8.828;2022-08-01T08:45:55;11.73;;;2.10;;
74059;SDS011;62414;53.436;8.828;2022-08-01T08:48:21;12.47;;;1.90;;
74059;SDS011;62414;53.436;8.828;2022-08-01T08:50:47;13.40;;;2.15;;
74059;SDS011;62414;53.436;8.828;2022-08-01T08:53:14;14.25;;;2.17;;
74059;SDS011;62414;53.436;8.828;2022-08-01T08:55:40;16.27;;;2.17;;
74059;SDS011;62414;53.436;8.828;2022-08-01T08:58:07;11.40;;;2.07;;
74059;SDS011;62414;53.436;8.828;2022-08-01T09:00:35;16.55;;;2.00;;
74059;SDS011;62414;53.436;8.828;2022-08-01T09:03:01;13.30;;;1.77;;
74059;SDS011;62414;53.436;8.828;2022-08-01T09:05:26;17.30;;;2.20;;
74059;SDS011;62414;53.436;8.828;2022-08-01T09:07:52;11.20;;;1.70;;
74059;SDS011;62414;53.436;8.828;2022-08-01T09:10:19;8.63;;;1.73;;
74059;SDS011;62414;53.436;8.828;2022-08-01T09:15:37;10.60;;;1.60;;
74059;SDS011;62414;53.436;8.828;2022-08-01T09:18:03;13.52;;;2.00;;
74059;SDS011;62414;53.436;8.828;2022-08-01T09:20:29;10.53;;;1.67;;
74059;SDS011;62414;53.436;8.828;2022-08-01T09:22:54;10.75;;;1.95;;
74059;SDS011;62414;53.436;8.828;2022-08-01T09:25:21;11.20;;;1.60;;
74059;SDS011;62414;53.436;8.828;2022-08-01T09:27:47;13.15;;;1.98;;
74059;SDS011;62414;53.436;8.828;2022-08-01T09:30:13;13.00;;;1.80;;
74059;SDS011;62414;53.436;8.828;2022-08-01T09:32:53;14.20;;;1.95;;
74059;SDS011;62414;53.436;8.828;2022-08-01T09:35:22;11.80;;;2.33;;
74059;SDS011;62414;53.436;8.828;2022-08-01T09:37:48;14.38;;;1.90;;
74059;SDS011;62414;53.436;8.828;2022-08-01T09:40:14;11.30;;;2.03;;
74059;SDS011;62414;53.436;8.828;2022-08-01T09:42:41;12.73;;;1.83;;
74059;SDS011;62414;53.436;8.828;2022-08-01T09:45:06;10.70;;;1.58;;
74059;SDS011;62414;53.436;8.828;2022-08-01T09:47:36;8.32;;;1.70;;
74059;SDS011;62414;53.436;8.828;2022-08-01T09:50:02;12.68;;;1.70;;
74059;SDS011;62414;53.436;8.828;2022-08-01T09:52:28;11.37;;;1.70;;
74059;SDS011;62414;53.436;8.828;2022-08-01T09:54:54;14.57;;;1.83;;
74059;SDS011;62414;53.436;8.828;2022-08-01T09:57:21;12.15;;;1.45;;
74059;SDS011;62414;53.436;8.828;2022-08-01T09:59:49;11.07;;;1.80;;
74059;SDS011;62414;53.436;8.828;2022-08-01T10:02:26;8.57;;;1.48;;
74059;SDS011;62414;53.436;8.828;2022-08-01T10:04:52;13.30;;;1.80;;
74059;SDS011;62414;53.436;8.828;2022-08-01T10:07:18;9.57;;;1.67;;
74059;SDS011;62414;53.436;8.828;2022-08-01T10:09:45;9.88;;;1.55;;
74059;SDS011;62414;53.436;8.828;2022-08-01T10:12:12;12.07;;;2.00;;
74059;SDS011;62414;53.436;8.828;2022-08-01T10:14:39;9.32;;;1.50;;
74059;SDS011;62414;53.436;8.828;2022-08-01T10:17:08;8.85;;;1.50;;
74059;SDS011;62414;53.436;8.828;2022-08-01T10:19:36;12.20;;;1.40;;
74059;SDS011;62414;53.436;8.828;2022-08-01T10:22:02;10.70;;;1.60;;
74059;SDS011;62414;53.436;8.828;2022-08-01T10:24:32;8.30;;;1.53;;
74059;SDS011;62414;53.436;8.828;2022-08-01T10:27:03;8.73;;;1.80;;
74059;SDS011;62414;53.436;8.828;2022-08-01T10:29:31;9.75;;;1.60;;
74059;SDS011;62414;53.436;8.828;2022-08-01T10:32:01;8.35;;;1.48;;
74059;SDS011;62414;53.436;8.828;2022-08-01T10:34:30;8.25;;;1.45;;
74059;SDS011;62414;53.436;8.828;2022-08-01T10:36:58;8.13;;;1.47;;
74059;SDS011;62414;53.436;8.828;2022-08-01T10:39:24;9.43;;;1.73;;
74059;SDS011;62414;53.436;8.828;2022-08-01T10:41:50;13.63;;;1.58;;
74059;SDS011;62414;53.436;8.828;2022-08-01T10:44:16;9.63;;;1.50;;
74059;SDS011;62414;53.436;8.828;2022-08-01T10:46:50;11.48;;;1.55;;
74059;SDS011;62414;53.436;8.828;2022-08-01T10:49:19;10.27;;;1.65;;
74059;SDS011;62414;53.436;8.828;2022-08-01T10:51:48;13.10;;;1.83;;
74059;SDS011;62414;53.436;8.828;2022-08-01T10:54:14;9.43;;;1.70;;
74059;SDS011;62414;53.436;8.828;2022-08-01T10:56:40;8.53;;;1.60;;
74059;SDS011;62414;53.436;8.828;2022-08-01T10:59:08;10.23;;;1.70;;
74059;SDS011;62414;53.436;8.828;2022-08-01T11:01:34;10.80;;;1.63;;
74059;SDS011;62414;53.436;8.828;2022-08-01T11:04:04;10.23;;;1.70;;
74059;SDS011;62414;53.436;8.828;2022-08-01T11:06:40;7.90;;;1.60;;
74059;SDS011;62414;53.436;8.828;2022-08-01T11:09:17;9.43;;;1.85;;
74059;SDS011;62414;53.436;8.828;2022-08-01T11:11:57;9.98;;;1.52;;
74059;SDS011;62414;53.436;8.828;2022-08-01T11:14:24;10.77;;;1.75;;
74059;SDS011;62414;53.436;8.828;2022-08-01T11:16:49;11.60;;;1.80;;
74059;SDS011;62414;53.436;8.828;2022-08-01T11:19:15;10.17;;;1.80;;
74059;SDS011;62414;53.436;8.828;2022-08-01T11:27:22;9.55;;;1.67;;
74059;SDS011;62414;53.436;8.828;2022-08-01T11:32:47;12.02;;;1.85;;
74059;SDS011;62414;53.436;8.828;2022-08-01T11:35:14;14.88;;;2.10;;
74059;SDS011;62414;53.436;8.828;2022-08-01T11:37:40;9.67;;;1.83;;
74059;SDS011;62414;53.436;8.828;2022-08-01T11:40:17;11.33;;;1.73;;
74059;SDS011;62414;53.436;8.828;2022-08-01T11:42:44;8.70;;;1.85;;
74059;SDS011;62414;53.436;8.828;2022-08-01T11:45:09;8.03;;;1.80;;
74059;SDS011;62414;53.436;8.828;2022-08-01T11:47:45;10.17;;;1.90;;
74059;SDS011;62414;53.436;8.828;2022-08-01T11:52:57;8.52;;;1.50;;
74059;SDS011;62414;53.436;8.828;2022-08-01T11:55:25;10.55;;;1.80;;
74059;SDS011;62414;53.436;8.828;2022-08-01T11:57:57;10.45;;;1.70;;
74059;SDS011;62414;53.436;8.828;2022-08-01T12:00:24;11.50;;;2.10;;
74059;SDS011;62414;53.436;8.828;2022-08-01T12:02:55;8.37;;;1.60;;
74059;SDS011;62414;53.436;8.828;2022-08-01T12:05:22;8.65;;;1.63;;
74059;SDS011;62414;53.436;8.828;2022-08-01T12:07:49;8.97;;;1.70;;
74059;SDS011;62414;53.436;8.828;2022-08-01T12:10:16;9.00;;;1.77;;
74059;SDS011;62414;53.436;8.828;2022-08-01T12:12:44;9.52;;;1.88;;
74059;SDS011;62414;53.436;8.828;2022-08-01T12:15:11;9.30;;;1.60;;
74059;SDS011;62414;53.436;8.828;2022-08-01T12:17:38;6.93;;;1.80;;
74059;SDS011;62414;53.436;8.828;2022-08-01T12:20:05;8.27;;;1.60;;
74059;SDS011;62414;53.436;8.828;2022-08-01T12:22:32;6.47;;;1.65;;
74059;SDS011;62414;53.436;8.828;2022-08-01T12:25:04;9.20;;;1.80;;
74059;SDS011;62414;53.436;8.828;2022-08-01T12:27:30;8.35;;;1.55;;
74059;SDS011;62414;53.436;8.828;2022-08-01T12:29:57;7.40;;;1.60;;
74059;SDS011;62414;53.436;8.828;2022-08-01T12:32:25;9.35;;;1.83;;
74059;SDS011;62414;53.436;8.828;2022-08-01T12:34:52;7.90;;;1.90;;
74059;SDS011;62414;53.436;8.828;2022-08-01T12:37:19;7.97;;;1.70;;
74059;SDS011;62414;53.436;8.828;2022-08-01T12:39:45;8.87;;;1.70;;
74059;SDS011;62414;53.436;8.828;2022-08-01T12:42:11;10.15;;;2.10;;
74059;SDS011;62414;53.436;8.828;2022-08-01T12:44:37;10.63;;;1.97;;
74059;SDS011;62414;53.436;8.828;2022-08-01T12:47:05;11.90;;;2.00;;
74059;SDS011;62414;53.436;8.828;2022-08-01T12:49:32;7.93;;;1.75;;
74059;SDS011;62414;53.436;8.828;2022-08-01T12:51:58;9.10;;;1.67;;
74059;SDS011;62414;53.436;8.828;2022-08-01T12:54:24;9.17;;;2.10;;
74059;SDS011;62414;53.436;8.828;2022-08-01T12:56:49;8.80;;;2.10;;
74059;SDS011;62414;53.436;8.828;2022-08-01T12:59:22;11.20;;;2.23;;
74059;SDS011;62414;53.436;8.828;2022-08-01T13:01:49;7.65;;;1.90;;
74059;SDS011;62414;53.436;8.828;2022-08-01T13:04:16;8.57;;;1.90;;
74059;SDS011;62414;53.436;8.828;2022-08-01T13:06:41;7.60;;;1.80;;
74059;SDS011;62414;53.436;8.828;2022-08-01T13:09:07;7.30;;;1.87;;
74059;SDS011;62414;53.436;8.828;2022-08-01T13:11:34;6.32;;;1.80;;
74059;SDS011;62414;53.436;8.828;2022-08-01T13:13:59;6.63;;;1.70;;
74059;SDS011;62414;53.436;8.828;2022-08-01T13:16:25;7.37;;;1.87;;
74059;SDS011;62414;53.436;8.828;2022-08-01T13:18:52;7.35;;;1.90;;
74059;SDS011;62414;53.436;8.828;2022-08-01T13:21:20;10.13;;;1.98;;
74059;SDS011;62414;53.436;8.828;2022-08-01T13:24:00;8.20;;;2.00;;
74059;SDS011;62414;53.436;8.828;2022-08-01T13:26:43;8.63;;;2.00;;
74059;SDS011;62414;53.436;8.828;2022-08-01T13:29:11;7.78;;;1.85;;
74059;SDS011;62414;53.436;8.828;2022-08-01T13:31:38;9.68;;;2.25;;
74059;SDS011;62414;53.436;8.828;2022-08-01T13:34:04;9.38;;;1.90;;
74059;SDS011;62414;53.436;8.828;2022-08-01T13:36:31;6.90;;;1.90;;
74059;SDS011;62414;53.436;8.828;2022-08-01T13:38:56;7.35;;;1.83;;
74059;SDS011;62414;53.436;8.828;2022-08-01T13:41:22;7.53;;;1.90;;
74059;SDS011;62414;53.436;8.828;2022-08-01T13:43:48;8.23;;;2.03;;
74059;SDS011;62414;53.436;8.828;2022-08-01T13:46:13;10.57;;;2.30;;
74059;SDS011;62414;53.436;8.828;2022-08-01T13:48:39;6.60;;;1.90;;
74059;SDS011;62414;53.436;8.828;2022-08-01T13:51:04;8.73;;;2.10;;
74059;SDS011;62414;53.436;8.828;2022-08-01T13:53:31;9.10;;;2.00;;
74059;SDS011;62414;53.436;8.828;2022-08-01T13:55:57;6.82;;;1.73;;
74059;SDS011;62414;53.436;8.828;2022-08-01T13:58:22;7.97;;;2.07;;
74059;SDS011;62414;53.436;8.828;2022-08-01T14:00:48;5.88;;;1.80;;
74059;SDS011;62414;53.436;8.828;2022-08-01T14:03:13;7.00;;;1.90;;
74059;SDS011;62414;53.436;8.828;2022-08-01T14:05:38;9.83;;;2.00;;
74059;SDS011;62414;53.436;8.828;2022-08-01T14:08:04;6.95;;;2.03;;
74059;SDS011;62414;53.436;8.828;2022-08-01T14:10:31;6.90;;;2.10;;
74059;SDS011;62414;53.436;8.828;2022-08-01T14:12:57;9.45;;;2.00;;
74059;SDS011;62414;53.436;8.828;2022-08-01T14:15:23;6.65;;;2.00;;
74059;SDS011;62414;53.436;8.828;2022-08-01T14:17:48;8.93;;;2.03;;
74059;SDS011;62414;53.436;8.828;2022-08-01T14:20:14;10.85;;;2.20;;
74059;SDS011;62414;53.436;8.828;2022-08-01T14:22:39;7.47;;;1.80;;
74059;SDS011;62414;53.436;8.828;2022-08-01T14:25:05;6.73;;;1.77;;
74059;SDS011;62414;53.436;8.828;2022-08-01T14:27:33;9.23;;;2.15;;
74059;SDS011;62414;53.436;8.828;2022-08-01T14:29:58;7.22;;;1.70;;
74059;SDS011;62414;53.436;8.828;2022-08-01T14:32:24;7.37;;;1.87;;
74059;SDS011;62414;53.436;8.828;2022-08-01T14:34:49;7.75;;;2.08;;
74059;SDS011;62414;53.436;8.828;2022-08-01T14:37:15;7.90;;;2.00;;
74059;SDS011;62414;53.436;8.828;2022-08-01T14:39:40;9.43;;;2.13;;
74059;SDS011;62414;53.436;8.828;2022-08-01T14:42:05;10.73;;;2.10;;
74059;SDS011;62414;53.436;8.828;2022-08-01T14:44:33;8.90;;;2.17;;
74059;SDS011;62414;53.436;8.828;2022-08-01T14:46:59;12.07;;;2.33;;
74059;SDS011;62414;53.436;8.828;2022-08-01T14:49:24;9.57;;;2.00;;
74059;SDS011;62414;53.436;8.828;2022-08-01T14:51:50;7.50;;;1.90;;